createdAt,value
2023-02-19T00:01:54.639Z,59.30
2023-02-19T00:04:23.836Z,58.97
2023-02-19T00:06:52.428Z,59.31
2023-02-19T00:09:22.805Z,59.68
2023-02-19T00:11:51.400Z,59.79
2023-02-19T00:14:21.902Z,59.73
2023-02-19T00:16:50.973Z,59.17
2023-02-19T00:19:20.970Z,60.50
2023-02-19T00:21:51.980Z,59.46
2023-02-19T00:24:22.081Z,59.11
2023-02-19T00:26:50.556Z,60.71
2023-02-19T00:29:21.305Z,60.93
2023-02-19T00:31:50.025Z,61.07
2023-02-19T00:34:18.489Z,62.22
2023-02-19T00:36:47.089Z,61.47
2023-02-19T00:39:18.838Z,60.80
2023-02-19T00:41:48.898Z,61.17
2023-02-19T00:44:17.978Z,62.03
2023-02-19T00:46:49.820Z,61.32
2023-02-19T00:49:22.250Z,61.22
2023-02-19T00:51:52.272Z,60.32
2023-02-19T00:54:22.813Z,60.74
2023-02-19T00:56:52.631Z,62.46
2023-02-19T00:59:20.770Z,61.90
2023-02-19T01:01:49.931Z,61.20
2023-02-19T01:04:19.561Z,61.60
2023-02-19T01:06:48.942Z,62.24
2023-02-19T01:09:17.033Z,61.93
2023-02-19T01:11:45.489Z,62.19
2023-02-19T01:14:15.257Z,61.25
2023-02-19T01:16:43.566Z,60.87
2023-02-19T01:19:12.390Z,61.74
2023-02-19T01:21:41.674Z,61.27
2023-02-19T01:24:11.399Z,61.24
2023-02-19T01:26:40.925Z,61.56
2023-02-19T01:29:10.352Z,61.12
2023-02-19T01:31:42.160Z,60.00
2023-02-19T01:34:12.501Z,60.82
2023-02-19T01:36:41.413Z,61.36
2023-02-19T01:39:10.522Z,60.48
2023-02-19T01:41:41.635Z,61.01
2023-02-19T01:44:48.838Z,61.22
2023-02-19T01:47:21.426Z,62.10
2023-02-19T01:49:54.181Z,60.00
2023-02-19T01:52:27.230Z,61.32
2023-02-19T01:54:56.876Z,61.38
2023-02-19T01:57:28.049Z,60.82
2023-02-19T02:00:00.715Z,61.23
2023-02-19T02:02:31.080Z,61.43
2023-02-19T02:05:01.391Z,60.91
2023-02-19T02:07:47.649Z,61.02
2023-02-19T02:10:22.366Z,60.95
2023-02-19T02:12:52.411Z,61.45
2023-02-19T02:15:22.655Z,60.88
2023-02-19T02:17:58.977Z,61.29
2023-02-19T02:21:00.486Z,60.72
2023-02-19T02:23:41.707Z,60.20
2023-02-19T02:26:32.061Z,61.99
2023-02-19T02:29:23.209Z,61.65
2023-02-19T02:31:58.356Z,60.20
2023-02-19T02:34:36.164Z,60.88
2023-02-19T02:37:05.755Z,61.82
2023-02-19T02:39:34.436Z,62.16
2023-02-19T02:42:16.922Z,61.45
2023-02-19T02:45:06.353Z,61.94
2023-02-19T02:47:43.263Z,61.72
2023-02-19T02:50:16.769Z,62.04
2023-02-19T02:53:04.740Z,63.53
2023-02-19T02:55:40.020Z,63.37
2023-02-19T02:58:09.244Z,62.15
2023-02-19T03:00:52.993Z,62.50
2023-02-19T03:03:26.637Z,64.50
2023-02-19T03:06:02.969Z,64.42
2023-02-19T03:08:35.859Z,63.79
2023-02-19T03:11:20.873Z,64.52
2023-02-19T03:14:09.636Z,64.45
2023-02-19T03:16:58.655Z,65.50
2023-02-19T03:19:30.171Z,64.04
2023-02-19T03:22:03.261Z,65.03
2023-02-19T03:24:54.129Z,64.93
2023-02-19T03:27:24.826Z,64.69
2023-02-19T03:29:58.216Z,65.16
2023-02-19T03:32:31.526Z,64.87
2023-02-19T03:35:06.500Z,65.09
2023-02-19T03:37:43.012Z,64.22
2023-02-19T03:40:12.168Z,65.18
2023-02-19T03:42:48.843Z,64.10
2023-02-19T03:45:35.090Z,64.59
2023-02-19T03:48:14.149Z,64.81
2023-02-19T03:50:50.097Z,64.25
2023-02-19T03:53:28.348Z,64.84
2023-02-19T03:56:09.461Z,64.26
2023-02-19T03:58:53.329Z,63.99
2023-02-19T04:01:29.458Z,63.65
2023-02-19T04:04:02.821Z,64.40
2023-02-19T04:06:35.066Z,64.12
2023-02-19T04:09:07.826Z,63.77
2023-02-19T04:11:38.103Z,63.46
2023-02-19T04:14:12.384Z,63.46
2023-02-19T04:16:45.360Z,63.25
2023-02-19T04:19:17.691Z,63.18
2023-02-19T04:21:48.447Z,63.44
2023-02-19T04:24:23.271Z,63.40
2023-02-19T04:26:51.526Z,62.41
2023-02-19T04:29:19.970Z,62.52
2023-02-19T04:31:48.390Z,62.91
2023-02-19T04:34:16.543Z,63.09
2023-02-19T04:36:44.693Z,62.17
2023-02-19T04:39:14.230Z,63.57
2023-02-19T04:41:43.022Z,63.02
2023-02-19T04:44:10.873Z,62.50
2023-02-19T04:46:39.967Z,63.36
2023-02-19T04:49:10.093Z,62.89
2023-02-19T04:51:38.163Z,62.91
2023-02-19T04:54:07.113Z,62.45
2023-02-19T04:56:36.829Z,61.84
2023-02-19T04:59:05.468Z,62.20
2023-02-19T05:01:33.584Z,62.07
2023-02-19T05:04:01.839Z,61.38
2023-02-19T05:06:30.009Z,61.50
2023-02-19T05:08:58.356Z,61.43
2023-02-19T05:11:26.883Z,61.49
2023-02-19T05:13:57.822Z,61.25
2023-02-19T05:16:26.662Z,61.46
2023-02-19T05:18:55.207Z,61.27
2023-02-19T05:21:23.514Z,61.47
2023-02-19T05:23:51.349Z,61.88
2023-02-19T05:26:22.320Z,61.11
2023-02-19T05:28:52.676Z,61.97
2023-02-19T05:31:22.879Z,61.25
2023-02-19T05:33:53.184Z,61.07
2023-02-19T05:36:22.510Z,59.99
2023-02-19T05:38:54.448Z,60.42
2023-02-19T05:41:24.243Z,60.84
2023-02-19T05:43:53.003Z,61.32
2023-02-19T05:46:24.971Z,62.19
2023-02-19T05:48:55.010Z,62.07
2023-02-19T05:51:25.689Z,62.45
2023-02-19T05:53:54.446Z,62.99
2023-02-19T05:56:28.967Z,62.46
2023-02-19T05:58:57.335Z,63.72
2023-02-19T06:01:29.403Z,63.41
2023-02-19T06:03:58.049Z,63.15
2023-02-19T06:06:27.255Z,62.67
2023-02-19T06:08:56.148Z,62.98
2023-02-19T06:11:25.275Z,62.31
2023-02-19T06:13:53.893Z,62.04
2023-02-19T06:16:22.065Z,63.64
2023-02-19T06:18:52.025Z,63.74
2023-02-19T06:21:20.893Z,63.61
2023-02-19T06:23:49.063Z,63.38
2023-02-19T06:26:19.987Z,63.66
2023-02-19T06:28:49.601Z,63.03
2023-02-19T06:31:18.689Z,62.42
2023-02-19T06:33:47.340Z,61.69
2023-02-19T06:36:18.445Z,61.31
2023-02-19T06:38:47.065Z,61.38
2023-02-19T06:41:16.331Z,62.28
2023-02-19T06:43:44.757Z,62.46
2023-02-19T06:46:14.310Z,62.63
2023-02-19T06:48:43.756Z,62.82
2023-02-19T06:51:13.729Z,63.00
2023-02-19T06:53:43.706Z,63.89
2023-02-19T06:56:24.708Z,62.96
2023-02-19T06:58:53.614Z,62.57
2023-02-19T07:01:22.357Z,62.99
2023-02-19T07:03:51.230Z,63.24
2023-02-19T07:06:19.799Z,62.12
2023-02-19T07:08:49.294Z,62.49
2023-02-19T07:11:18.741Z,61.36
2023-02-19T07:13:46.884Z,61.94
2023-02-19T07:16:15.718Z,61.08
2023-02-19T07:18:43.876Z,62.25
2023-02-19T07:21:13.984Z,61.16
2023-02-19T07:23:43.142Z,62.71
2023-02-19T07:26:15.980Z,62.12
2023-02-19T07:28:45.636Z,61.13
2023-02-19T07:31:14.366Z,63.50
2023-02-19T07:33:44.434Z,63.90
2023-02-19T07:36:13.298Z,64.87
2023-02-19T07:38:41.365Z,64.81
2023-02-19T07:41:10.070Z,64.08
2023-02-19T07:43:40.780Z,64.07
2023-02-19T07:46:10.939Z,63.26
2023-02-19T07:48:40.807Z,63.47
2023-02-19T07:51:12.085Z,63.63
2023-02-19T07:53:40.640Z,63.77
2023-02-19T07:56:09.284Z,64.14
2023-02-19T07:58:37.575Z,65.26
2023-02-19T08:01:14.968Z,63.98
2023-02-19T08:03:42.930Z,63.23
2023-02-19T08:06:12.188Z,62.41
2023-02-19T08:08:40.563Z,60.93
2023-02-19T08:11:26.921Z,61.77
2023-02-19T08:13:54.947Z,59.40
2023-02-19T08:16:40.862Z,60.50
2023-02-19T08:19:10.622Z,59.95
2023-02-19T08:21:38.683Z,58.97
2023-02-19T08:24:07.178Z,59.43
2023-02-19T08:26:35.652Z,59.41
2023-02-19T08:29:04.185Z,57.92
2023-02-19T08:31:34.330Z,58.44
2023-02-19T08:34:02.893Z,57.42
2023-02-19T08:36:31.318Z,58.42
2023-02-19T08:38:59.284Z,59.00
2023-02-19T08:41:27.481Z,59.95
2023-02-19T08:43:55.446Z,59.30
2023-02-19T08:46:23.752Z,58.97
2023-02-19T08:48:53.468Z,60.09
2023-02-19T08:51:21.504Z,59.93
2023-02-19T08:53:49.693Z,61.23
2023-02-19T08:56:18.658Z,60.54
2023-02-19T08:58:46.886Z,60.35
2023-02-19T09:01:16.731Z,60.07
2023-02-19T09:03:45.501Z,59.07
2023-02-19T09:06:18.057Z,60.98
2023-02-19T09:08:46.136Z,60.67
2023-02-19T09:11:15.235Z,59.52
2023-02-19T09:13:43.543Z,59.64
2023-02-19T09:16:12.519Z,60.39
2023-02-19T09:18:40.918Z,59.91
2023-02-19T09:21:09.346Z,60.17
2023-02-19T09:23:39.429Z,59.10
2023-02-19T09:26:10.143Z,60.53
2023-02-19T09:28:41.709Z,60.92
2023-02-19T09:31:12.878Z,59.87
2023-02-19T09:33:43.692Z,59.66
2023-02-19T09:36:12.198Z,60.07
2023-02-19T09:38:41.818Z,59.70
2023-02-19T09:41:16.658Z,59.58
2023-02-19T09:43:45.505Z,61.04
2023-02-19T09:46:25.252Z,60.27
2023-02-19T09:48:55.730Z,60.89
2023-02-19T09:51:25.939Z,60.42
2023-02-19T09:53:57.540Z,58.08
2023-02-19T09:56:27.141Z,58.84
2023-02-19T09:58:58.736Z,57.13
2023-02-19T10:01:32.244Z,55.08
2023-02-19T10:04:00.350Z,56.65
2023-02-19T10:06:29.969Z,56.72
2023-02-19T10:09:12.805Z,56.87
2023-02-19T10:11:41.398Z,56.09
2023-02-19T10:14:16.518Z,57.03
2023-02-19T10:16:47.115Z,55.09
2023-02-19T10:19:15.985Z,52.87
2023-02-19T10:21:44.377Z,54.25
2023-02-19T10:24:21.399Z,57.95
2023-02-19T10:31:20.547Z,57.35
2023-02-19T10:33:51.576Z,55.78
2023-02-19T10:36:29.878Z,56.82
2023-02-19T10:39:00.599Z,57.48
2023-02-19T10:41:32.030Z,57.71
2023-02-19T10:44:06.649Z,57.53
2023-02-19T10:46:38.782Z,56.39
2023-02-19T10:49:19.919Z,57.29
2023-02-19T10:51:49.147Z,57.25
2023-02-19T10:54:20.407Z,57.62
2023-02-19T10:56:50.178Z,57.32
2023-02-19T10:59:25.705Z,58.59
2023-02-19T11:01:58.940Z,58.07
2023-02-19T11:04:29.348Z,56.95
2023-02-19T11:06:58.534Z,57.73
2023-02-19T11:09:30.918Z,56.40
2023-02-19T11:12:01.773Z,54.52
2023-02-19T11:14:31.789Z,53.06
2023-02-19T11:17:04.325Z,54.30
2023-02-19T11:19:38.097Z,55.36
2023-02-19T11:22:21.415Z,54.55
2023-02-19T11:24:53.052Z,53.25
2023-02-19T11:27:26.870Z,53.04
2023-02-19T11:29:55.275Z,55.80
2023-02-19T11:32:30.126Z,55.73
2023-02-19T11:35:19.522Z,55.25
2023-02-19T11:37:59.731Z,53.58
2023-02-19T11:40:42.170Z,56.74
2023-02-19T11:43:31.739Z,56.16
2023-02-19T11:46:09.917Z,54.08
2023-02-19T11:48:50.144Z,54.66
2023-02-19T11:51:46.126Z,55.32
2023-02-19T11:54:32.111Z,54.02
2023-02-19T11:57:10.240Z,55.87
2023-02-19T11:59:49.363Z,55.03
2023-02-19T12:02:40.871Z,55.54
2023-02-19T12:05:29.742Z,54.94
2023-02-19T12:08:14.545Z,55.76
2023-02-19T12:10:58.341Z,56.44
2023-02-19T12:13:40.633Z,57.45
2023-02-19T12:16:20.897Z,56.80
2023-02-19T12:19:05.083Z,54.67
2023-02-19T12:21:47.789Z,55.25
2023-02-19T12:25:01.256Z,54.54
2023-02-19T12:27:45.493Z,52.29
2023-02-19T12:30:28.183Z,52.44
2023-02-19T12:33:19.173Z,53.61
2023-02-19T12:36:04.463Z,52.86
2023-02-19T12:38:35.194Z,52.82
2023-02-19T12:41:16.732Z,52.08
2023-02-19T12:43:53.204Z,51.82
2023-02-19T12:46:27.359Z,51.38
2023-02-19T12:49:02.867Z,51.91
2023-02-19T12:51:40.710Z,52.19
2023-02-19T12:54:16.061Z,52.61
2023-02-19T12:56:50.261Z,52.33
2023-02-19T12:59:26.000Z,49.50
2023-02-19T13:01:59.399Z,51.06
2023-02-19T13:04:35.744Z,50.18
2023-02-19T13:07:10.692Z,49.68
2023-02-19T13:09:43.767Z,48.86
2023-02-19T13:12:17.372Z,50.32
2023-02-19T13:14:49.955Z,49.50
2023-02-19T13:17:24.881Z,48.56
2023-02-19T13:19:59.724Z,48.76
2023-02-19T13:22:52.856Z,47.33
2023-02-19T13:25:23.617Z,45.98
2023-02-19T13:28:14.808Z,47.46
2023-02-19T13:30:59.249Z,48.74
2023-02-19T13:33:42.297Z,46.44
2023-02-19T13:36:15.752Z,46.60
2023-02-19T13:38:46.565Z,47.94
2023-02-19T13:41:28.047Z,48.43
2023-02-19T13:43:59.554Z,48.74
2023-02-19T13:46:38.700Z,48.66
2023-02-19T13:49:44.573Z,48.33
2023-02-19T13:52:38.304Z,47.13
2023-02-19T13:55:44.219Z,49.28
2023-02-19T13:58:52.122Z,48.18
2023-02-19T14:01:21.041Z,50.03
2023-02-19T14:03:54.820Z,49.03
2023-02-19T14:06:23.062Z,48.92
2023-02-19T14:08:57.212Z,49.92
2023-02-19T14:12:05.368Z,50.44
2023-02-19T14:14:36.880Z,51.60
2023-02-19T14:17:26.768Z,50.61
2023-02-19T14:20:04.450Z,48.80
2023-02-19T14:23:01.867Z,49.28
2023-02-19T14:25:38.293Z,48.79
2023-02-19T14:28:15.881Z,50.54
2023-02-19T14:30:50.351Z,50.60
2023-02-19T14:33:22.579Z,50.27
2023-02-19T14:35:55.622Z,49.38
2023-02-19T14:38:27.478Z,49.83
2023-02-19T14:40:58.439Z,49.10
2023-02-19T14:43:29.297Z,49.55
2023-02-19T14:46:00.298Z,50.34
2023-02-19T14:48:33.931Z,49.46
2023-02-19T14:51:06.725Z,50.70
2023-02-19T14:53:40.610Z,52.61
2023-02-19T14:56:22.062Z,51.54
2023-02-19T14:59:23.205Z,51.74
2023-02-19T15:01:56.176Z,51.82
2023-02-19T15:04:26.074Z,51.25
2023-02-19T15:06:57.127Z,51.10
2023-02-19T15:09:32.420Z,50.50
2023-02-19T15:12:04.424Z,48.48
2023-02-19T15:14:34.757Z,47.93
2023-02-19T15:17:06.567Z,47.72
2023-02-19T15:19:39.697Z,47.59
2023-02-19T15:22:08.997Z,47.42
2023-02-19T15:24:37.749Z,47.56
2023-02-19T15:27:07.755Z,46.23
2023-02-19T15:29:35.669Z,47.17
2023-02-19T15:32:03.848Z,48.65
2023-02-19T15:34:33.760Z,49.25
2023-02-19T15:37:05.870Z,49.98
2023-02-19T15:39:37.190Z,50.48
2023-02-19T15:42:09.590Z,50.05
2023-02-19T15:44:50.720Z,50.88
2023-02-19T15:47:29.356Z,50.51
2023-02-19T15:50:02.481Z,52.26
2023-02-19T15:52:38.500Z,51.29
2023-02-19T15:55:20.809Z,51.57
2023-02-19T15:57:56.366Z,52.41
2023-02-19T16:00:30.840Z,50.88
2023-02-19T16:03:00.098Z,51.75
2023-02-19T16:05:31.008Z,50.93
2023-02-19T16:08:18.022Z,51.51
2023-02-19T16:10:57.373Z,52.45
2023-02-19T16:13:29.386Z,52.67
2023-02-19T16:16:02.430Z,51.53
2023-02-19T16:18:32.031Z,52.15
2023-02-19T16:21:00.681Z,52.33
2023-02-19T16:23:29.304Z,52.80
2023-02-19T16:26:02.355Z,53.36
2023-02-19T16:28:39.461Z,54.75
2023-02-19T16:31:10.370Z,53.71
2023-02-19T16:33:41.984Z,53.54
2023-02-19T16:36:41.847Z,52.95
2023-02-19T16:39:18.708Z,52.99
2023-02-19T16:42:20.958Z,53.09
2023-02-19T16:44:51.847Z,53.05
2023-02-19T16:47:34.746Z,53.62
2023-02-19T16:50:08.959Z,53.45
2023-02-19T16:52:39.299Z,53.01
2023-02-19T16:55:14.733Z,52.92
2023-02-19T16:57:43.203Z,53.67
2023-02-19T17:00:17.970Z,54.37
2023-02-19T17:02:48.210Z,54.45
2023-02-19T17:05:17.346Z,54.38
2023-02-19T17:07:45.731Z,54.24
2023-02-19T17:10:17.171Z,54.82
2023-02-19T17:12:45.254Z,54.87
2023-02-19T17:15:14.954Z,55.01
2023-02-19T17:17:43.790Z,55.34
2023-02-19T17:20:22.794Z,55.14
2023-02-19T17:22:51.745Z,54.29
2023-02-19T17:25:20.450Z,54.82
2023-02-19T17:27:49.074Z,55.38
2023-02-19T17:30:21.907Z,54.90
2023-02-19T17:32:50.251Z,54.74
2023-02-19T17:35:18.679Z,55.50
2023-02-19T17:37:55.974Z,55.26
2023-02-19T17:40:33.187Z,55.59
2023-02-19T17:43:02.256Z,55.43
2023-02-19T17:45:34.053Z,55.40
2023-02-19T17:48:02.505Z,55.26
2023-02-19T17:50:35.094Z,55.61
2023-02-19T17:53:04.616Z,54.81
2023-02-19T17:55:33.649Z,54.21
2023-02-19T17:58:02.658Z,54.55
2023-02-19T18:00:33.178Z,54.71
2023-02-19T18:03:01.470Z,54.03
2023-02-19T18:05:29.658Z,54.06
2023-02-19T18:07:58.120Z,54.83
2023-02-19T18:10:26.582Z,54.08
2023-02-19T18:12:55.086Z,54.60
2023-02-19T18:15:26.310Z,54.23
2023-02-19T18:17:57.565Z,54.25
2023-02-19T18:20:28.315Z,54.17
2023-02-19T18:22:57.711Z,54.76
2023-02-19T18:25:26.438Z,54.70
2023-02-19T18:27:55.306Z,54.60
2023-02-19T18:30:24.464Z,54.95
2023-02-19T18:32:53.317Z,54.90
2023-02-19T18:35:23.175Z,54.18
2023-02-19T18:37:53.234Z,53.82
2023-02-19T18:40:21.710Z,54.94
2023-02-19T18:42:50.437Z,54.11
2023-02-19T18:45:19.145Z,54.25
2023-02-19T18:47:48.699Z,53.86
2023-02-19T18:50:18.107Z,54.29
2023-02-19T18:52:48.048Z,54.38
2023-02-19T18:55:16.464Z,54.15
2023-02-19T18:57:45.347Z,54.37
2023-02-19T19:00:18.830Z,54.46
2023-02-19T19:02:50.568Z,54.55
2023-02-19T19:05:23.147Z,54.46
2023-02-19T19:07:54.464Z,54.89
2023-02-19T19:10:23.930Z,54.87
2023-02-19T19:12:52.318Z,54.35
2023-02-19T19:15:21.580Z,54.55
2023-02-19T19:17:49.642Z,54.39
2023-02-19T19:20:20.728Z,55.16
2023-02-19T19:22:50.711Z,55.34
2023-02-19T19:25:21.199Z,55.34
2023-02-19T19:27:50.899Z,54.83
2023-02-19T19:30:20.885Z,55.72
2023-02-19T19:32:49.879Z,55.39
2023-02-19T19:35:19.012Z,55.71
2023-02-19T19:37:47.545Z,55.83
2023-02-19T19:40:17.653Z,55.48
2023-02-19T19:42:47.875Z,54.80
2023-02-19T19:45:16.831Z,55.35
2023-02-19T19:47:45.339Z,55.77
2023-02-19T19:50:14.639Z,55.42
2023-02-19T19:52:43.078Z,55.12
2023-02-19T19:55:11.660Z,55.59
2023-02-19T19:57:41.011Z,55.60
2023-02-19T20:00:16.448Z,56.06
2023-02-19T20:02:44.968Z,56.88
2023-02-19T20:05:14.139Z,56.91
2023-02-19T20:07:42.600Z,56.75
2023-02-19T20:10:13.298Z,56.86
2023-02-19T20:12:41.812Z,56.50
2023-02-19T20:15:12.458Z,56.35
2023-02-19T20:17:40.899Z,57.21
2023-02-19T20:20:10.536Z,56.77
2023-02-19T20:22:39.679Z,56.07
2023-02-19T20:25:08.143Z,55.61
2023-02-19T20:27:36.502Z,55.45
2023-02-19T20:30:05.984Z,54.91
2023-02-19T20:32:35.443Z,54.92
2023-02-19T20:35:03.453Z,55.20
2023-02-19T20:37:31.572Z,55.90
2023-02-19T20:40:00.318Z,56.09
2023-02-19T20:42:28.540Z,56.48
2023-02-19T20:44:57.040Z,56.24
2023-02-19T20:47:25.186Z,56.71
2023-02-19T20:49:54.532Z,56.48
2023-02-19T20:52:24.786Z,56.30
2023-02-19T20:54:55.547Z,57.36
2023-02-19T20:57:24.389Z,56.30
2023-02-19T20:59:52.335Z,55.97
2023-02-19T21:02:22.323Z,56.77
2023-02-19T21:04:50.913Z,56.97
2023-02-19T21:07:20.462Z,56.23
2023-02-19T21:09:49.045Z,57.27
2023-02-19T21:12:17.778Z,57.95
2023-02-19T21:14:45.945Z,58.46
2023-02-19T21:17:14.658Z,58.72
2023-02-19T21:19:42.905Z,59.14
2023-02-19T21:22:11.300Z,58.62
2023-02-19T21:24:41.002Z,58.38
2023-02-19T21:27:09.646Z,59.21
2023-02-19T21:29:37.717Z,58.52
2023-02-19T21:32:06.283Z,58.85
2023-02-19T21:34:34.714Z,58.56
2023-02-19T21:37:02.838Z,58.66
2023-02-19T21:39:32.368Z,60.25
2023-02-19T21:42:02.804Z,59.15
2023-02-19T21:44:31.225Z,60.20
2023-02-19T21:46:59.504Z,60.72
2023-02-19T21:49:27.607Z,60.55
2023-02-19T21:51:55.886Z,60.31
2023-02-19T21:54:25.836Z,61.27
2023-02-19T21:56:54.842Z,59.50
2023-02-19T21:59:24.850Z,59.22
2023-02-19T22:01:53.093Z,58.25
2023-02-19T22:04:24.571Z,58.94
2023-02-19T22:06:56.631Z,58.21
2023-02-19T22:09:24.872Z,58.88
2023-02-19T22:11:53.118Z,59.39
2023-02-19T22:14:21.713Z,59.12
2023-02-19T22:16:51.804Z,59.52
2023-02-19T22:19:20.381Z,60.06
2023-02-19T22:21:49.066Z,59.68
2023-02-19T22:24:19.467Z,60.35
2023-02-19T22:26:50.771Z,60.54
2023-02-19T22:29:19.262Z,59.64
2023-02-19T22:31:47.930Z,59.29
2023-02-19T22:34:18.347Z,58.44
2023-02-19T22:36:46.632Z,57.89
2023-02-19T22:39:18.949Z,58.27
2023-02-19T22:41:46.891Z,58.89
2023-02-19T22:44:20.069Z,57.77
2023-02-19T22:46:50.293Z,58.63
2023-02-19T22:49:21.016Z,58.58
2023-02-19T22:51:56.301Z,58.86
2023-02-19T22:54:27.201Z,58.35
2023-02-19T22:56:55.707Z,58.54
2023-02-19T22:59:24.563Z,58.80
2023-02-19T23:01:53.508Z,58.46
2023-02-19T23:04:24.403Z,58.21
2023-02-19T23:06:53.060Z,57.66
2023-02-19T23:09:24.236Z,59.44
2023-02-19T23:11:53.339Z,59.28
2023-02-19T23:14:23.195Z,59.36
2023-02-19T23:16:51.164Z,58.81
2023-02-19T23:19:19.649Z,58.55
2023-02-19T23:21:49.760Z,58.30
2023-02-19T23:24:18.453Z,58.58
2023-02-19T23:26:47.682Z,58.50
2023-02-19T23:29:17.490Z,58.18
2023-02-19T23:31:46.100Z,57.61
2023-02-19T23:34:14.951Z,58.21
2023-02-19T23:36:43.464Z,58.33
2023-02-19T23:39:14.673Z,58.28
2023-02-19T23:41:47.900Z,58.44
2023-02-19T23:44:16.899Z,58.37
2023-02-19T23:46:46.686Z,58.75
2023-02-19T23:49:15.368Z,58.60
2023-02-19T23:51:43.468Z,58.16
2023-02-19T23:54:13.678Z,58.76
2023-02-19T23:56:42.302Z,58.68
2023-02-19T23:59:10.805Z,58.11
